sensor_id;sensor_type;location;lat;lon;timestamp;P1;durP1;ratioP1;P2;durP2;ratioP2
28266;SDS011;15525;45.568;5.448;2023-11-18T00:01:48;30.42;;;15.80;;
28266;SDS011;15525;45.568;5.448;2023-11-18T00:04:13;30.80;;;16.75;;
28266;SDS011;15525;45.568;5.448;2023-11-18T00:06:44;26.83;;;15.27;;
28266;SDS011;15525;45.568;5.448;2023-11-18T00:09:13;26.45;;;15.95;;
28266;SDS011;15525;45.568;5.448;2023-11-18T00:11:41;26.52;;;14.70;;
28266;SDS011;15525;45.568;5.448;2023-11-18T00:14:07;26.23;;;15.65;;
28266;SDS011;15525;45.568;5.448;2023-11-18T00:16:35;26.08;;;15.07;;
28266;SDS011;15525;45.568;5.448;2023-11-18T00:19:01;32.70;;;17.65;;
28266;SDS011;15525;45.568;5.448;2023-11-18T00:21:29;29.70;;;18.27;;
28266;SDS011;15525;45.568;5.448;2023-11-18T00:23:55;30.13;;;16.35;;
28266;SDS011;15525;45.568;5.448;2023-11-18T00:26:21;28.80;;;16.67;;
28266;SDS011;15525;45.568;5.448;2023-11-18T00:28:46;33.17;;;16.98;;
28266;SDS011;15525;45.568;5.448;2023-11-18T00:31:13;30.98;;;17.30;;
28266;SDS011;15525;45.568;5.448;2023-11-18T00:33:39;28.70;;;16.40;;
28266;SDS011;15525;45.568;5.448;2023-11-18T00:36:04;25.27;;;15.15;;
28266;SDS011;15525;45.568;5.448;2023-11-18T00:38:31;26.60;;;15.65;;
28266;SDS011;15525;45.568;5.448;2023-11-18T00:40:57;30.33;;;17.02;;
28266;SDS011;15525;45.568;5.448;2023-11-18T00:43:22;25.30;;;16.02;;
28266;SDS011;15525;45.568;5.448;2023-11-18T00:45:48;29.40;;;15.48;;
28266;SDS011;15525;45.568;5.448;2023-11-18T00:48:13;31.77;;;15.73;;
28266;SDS011;15525;45.568;5.448;2023-11-18T00:50:39;28.92;;;15.93;;
28266;SDS011;15525;45.568;5.448;2023-11-18T00:53:05;27.75;;;15.65;;
28266;SDS011;15525;45.568;5.448;2023-11-18T00:55:31;31.25;;;17.20;;
28266;SDS011;15525;45.568;5.448;2023-11-18T00:57:57;29.67;;;17.38;;
28266;SDS011;15525;45.568;5.448;2023-11-18T01:00:23;33.83;;;17.35;;
28266;SDS011;15525;45.568;5.448;2023-11-18T01:02:51;31.48;;;16.70;;
28266;SDS011;15525;45.568;5.448;2023-11-18T01:05:18;27.80;;;16.52;;
28266;SDS011;15525;45.568;5.448;2023-11-18T01:07:44;30.08;;;17.73;;
28266;SDS011;15525;45.568;5.448;2023-11-18T01:10:09;29.83;;;17.15;;
28266;SDS011;15525;45.568;5.448;2023-11-18T01:12:36;25.02;;;15.77;;
28266;SDS011;15525;45.568;5.448;2023-11-18T01:15:01;29.33;;;16.52;;
28266;SDS011;15525;45.568;5.448;2023-11-18T01:17:28;27.90;;;16.23;;
28266;SDS011;15525;45.568;5.448;2023-11-18T01:19:54;25.10;;;15.75;;
28266;SDS011;15525;45.568;5.448;2023-11-18T01:22:20;29.77;;;15.77;;
28266;SDS011;15525;45.568;5.448;2023-11-18T01:24:46;27.15;;;15.88;;
28266;SDS011;15525;45.568;5.448;2023-11-18T01:27:11;23.30;;;15.43;;
28266;SDS011;15525;45.568;5.448;2023-11-18T01:29:36;27.00;;;15.85;;
28266;SDS011;15525;45.568;5.448;2023-11-18T01:32:03;25.55;;;15.57;;
28266;SDS011;15525;45.568;5.448;2023-11-18T01:34:34;24.83;;;14.85;;
28266;SDS011;15525;45.568;5.448;2023-11-18T01:37:08;24.63;;;15.55;;
28266;SDS011;15525;45.568;5.448;2023-11-18T01:39:34;23.02;;;14.52;;
28266;SDS011;15525;45.568;5.448;2023-11-18T01:42:00;23.77;;;14.95;;
28266;SDS011;15525;45.568;5.448;2023-11-18T01:44:25;26.77;;;15.38;;
28266;SDS011;15525;45.568;5.448;2023-11-18T01:46:53;27.27;;;15.60;;
28266;SDS011;15525;45.568;5.448;2023-11-18T01:49:22;25.20;;;14.85;;
28266;SDS011;15525;45.568;5.448;2023-11-18T01:51:49;23.83;;;15.05;;
28266;SDS011;15525;45.568;5.448;2023-11-18T01:54:19;24.55;;;14.95;;
28266;SDS011;15525;45.568;5.448;2023-11-18T01:56:47;28.35;;;16.17;;
28266;SDS011;15525;45.568;5.448;2023-11-18T01:59:13;25.85;;;14.27;;
28266;SDS011;15525;45.568;5.448;2023-11-18T02:01:50;28.73;;;16.83;;
28266;SDS011;15525;45.568;5.448;2023-11-18T02:04:18;28.45;;;16.73;;
28266;SDS011;15525;45.568;5.448;2023-11-18T02:06:44;31.77;;;17.42;;
28266;SDS011;15525;45.568;5.448;2023-11-18T02:09:13;26.08;;;15.68;;
28266;SDS011;15525;45.568;5.448;2023-11-18T02:11:56;28.52;;;16.67;;
28266;SDS011;15525;45.568;5.448;2023-11-18T02:14:23;24.00;;;14.73;;
28266;SDS011;15525;45.568;5.448;2023-11-18T02:16:53;25.52;;;15.20;;
28266;SDS011;15525;45.568;5.448;2023-11-18T02:19:21;27.08;;;14.85;;
28266;SDS011;15525;45.568;5.448;2023-11-18T02:21:49;26.52;;;15.13;;
28266;SDS011;15525;45.568;5.448;2023-11-18T02:26:53;29.70;;;16.33;;
28266;SDS011;15525;45.568;5.448;2023-11-18T02:29:21;27.17;;;15.93;;
28266;SDS011;15525;45.568;5.448;2023-11-18T02:31:47;29.70;;;17.15;;
28266;SDS011;15525;45.568;5.448;2023-11-18T02:34:19;24.92;;;16.17;;
28266;SDS011;15525;45.568;5.448;2023-11-18T02:36:52;23.80;;;15.18;;
28266;SDS011;15525;45.568;5.448;2023-11-18T02:39:36;24.47;;;14.77;;
28266;SDS011;15525;45.568;5.448;2023-11-18T02:42:08;26.13;;;15.30;;
28266;SDS011;15525;45.568;5.448;2023-11-18T02:44:37;23.58;;;14.43;;
28266;SDS011;15525;45.568;5.448;2023-11-18T02:47:03;24.17;;;15.23;;
28266;SDS011;15525;45.568;5.448;2023-11-18T02:49:30;24.88;;;14.50;;
28266;SDS011;15525;45.568;5.448;2023-11-18T02:51:56;27.25;;;15.55;;
28266;SDS011;15525;45.568;5.448;2023-11-18T02:54:22;23.10;;;14.52;;
28266;SDS011;15525;45.568;5.448;2023-11-18T02:56:48;23.58;;;14.38;;
28266;SDS011;15525;45.568;5.448;2023-11-18T02:59:14;24.15;;;15.23;;
28266;SDS011;15525;45.568;5.448;2023-11-18T03:01:40;25.48;;;14.98;;
28266;SDS011;15525;45.568;5.448;2023-11-18T03:04:06;24.83;;;15.18;;
28266;SDS011;15525;45.568;5.448;2023-11-18T03:06:31;25.02;;;14.95;;
28266;SDS011;15525;45.568;5.448;2023-11-18T03:09:00;23.95;;;14.57;;
28266;SDS011;15525;45.568;5.448;2023-11-18T03:11:26;22.90;;;14.52;;
28266;SDS011;15525;45.568;5.448;2023-11-18T03:13:55;23.77;;;14.63;;
28266;SDS011;15525;45.568;5.448;2023-11-18T03:16:21;26.70;;;14.75;;
28266;SDS011;15525;45.568;5.448;2023-11-18T03:18:47;27.27;;;15.50;;
28266;SDS011;15525;45.568;5.448;2023-11-18T03:21:13;25.13;;;14.60;;
28266;SDS011;15525;45.568;5.448;2023-11-18T03:23:39;27.40;;;14.45;;
28266;SDS011;15525;45.568;5.448;2023-11-18T03:26:06;24.30;;;14.93;;
28266;SDS011;15525;45.568;5.448;2023-11-18T03:28:31;23.55;;;14.65;;
28266;SDS011;15525;45.568;5.448;2023-11-18T03:30:57;26.95;;;15.52;;
28266;SDS011;15525;45.568;5.448;2023-11-18T03:33:22;28.30;;;15.68;;
28266;SDS011;15525;45.568;5.448;2023-11-18T03:35:48;27.17;;;15.77;;
28266;SDS011;15525;45.568;5.448;2023-11-18T03:38:13;27.77;;;15.82;;
28266;SDS011;15525;45.568;5.448;2023-11-18T03:40:40;32.83;;;20.30;;
28266;SDS011;15525;45.568;5.448;2023-11-18T03:43:06;34.22;;;20.50;;
28266;SDS011;15525;45.568;5.448;2023-11-18T03:45:32;28.23;;;16.80;;
28266;SDS011;15525;45.568;5.448;2023-11-18T03:47:58;28.75;;;17.00;;
28266;SDS011;15525;45.568;5.448;2023-11-18T03:50:24;29.73;;;17.10;;
28266;SDS011;15525;45.568;5.448;2023-11-18T03:52:50;27.73;;;16.25;;
28266;SDS011;15525;45.568;5.448;2023-11-18T03:55:15;27.48;;;16.50;;
28266;SDS011;15525;45.568;5.448;2023-11-18T03:57:40;30.95;;;16.02;;
28266;SDS011;15525;45.568;5.448;2023-11-18T04:00:06;28.70;;;15.90;;
28266;SDS011;15525;45.568;5.448;2023-11-18T04:02:32;29.33;;;16.20;;
28266;SDS011;15525;45.568;5.448;2023-11-18T04:05:00;29.90;;;16.98;;
28266;SDS011;15525;45.568;5.448;2023-11-18T04:07:26;31.05;;;17.23;;
28266;SDS011;15525;45.568;5.448;2023-11-18T04:09:53;29.42;;;17.02;;
28266;SDS011;15525;45.568;5.448;2023-11-18T04:12:19;30.35;;;16.88;;
28266;SDS011;15525;45.568;5.448;2023-11-18T04:14:44;27.92;;;16.75;;
28266;SDS011;15525;45.568;5.448;2023-11-18T04:17:09;25.88;;;15.30;;
28266;SDS011;15525;45.568;5.448;2023-11-18T04:19:35;31.33;;;16.58;;
28266;SDS011;15525;45.568;5.448;2023-11-18T04:22:00;27.17;;;15.95;;
28266;SDS011;15525;45.568;5.448;2023-11-18T04:24:26;30.13;;;16.92;;
28266;SDS011;15525;45.568;5.448;2023-11-18T04:26:51;28.05;;;16.70;;
28266;SDS011;15525;45.568;5.448;2023-11-18T04:29:16;28.13;;;15.70;;
28266;SDS011;15525;45.568;5.448;2023-11-18T04:31:43;26.40;;;15.70;;
28266;SDS011;15525;45.568;5.448;2023-11-18T04:34:08;26.77;;;15.43;;
28266;SDS011;15525;45.568;5.448;2023-11-18T04:36:33;28.88;;;14.75;;
28266;SDS011;15525;45.568;5.448;2023-11-18T04:38:59;24.33;;;14.85;;
28266;SDS011;15525;45.568;5.448;2023-11-18T04:41:24;24.55;;;14.63;;
28266;SDS011;15525;45.568;5.448;2023-11-18T04:43:51;24.48;;;13.80;;
28266;SDS011;15525;45.568;5.448;2023-11-18T04:46:16;24.70;;;14.07;;
28266;SDS011;15525;45.568;5.448;2023-11-18T04:48:42;26.17;;;14.30;;
28266;SDS011;15525;45.568;5.448;2023-11-18T04:51:08;23.27;;;14.13;;
28266;SDS011;15525;45.568;5.448;2023-11-18T04:53:33;23.92;;;14.15;;
28266;SDS011;15525;45.568;5.448;2023-11-18T04:55:59;22.50;;;14.40;;
28266;SDS011;15525;45.568;5.448;2023-11-18T04:58:24;23.50;;;14.57;;
28266;SDS011;15525;45.568;5.448;2023-11-18T05:00:50;26.88;;;15.25;;
28266;SDS011;15525;45.568;5.448;2023-11-18T05:03:18;29.08;;;15.75;;
28266;SDS011;15525;45.568;5.448;2023-11-18T05:05:44;26.40;;;14.63;;
28266;SDS011;15525;45.568;5.448;2023-11-18T05:08:17;23.75;;;14.55;;
28266;SDS011;15525;45.568;5.448;2023-11-18T05:10:47;26.60;;;15.30;;
28266;SDS011;15525;45.568;5.448;2023-11-18T05:13:13;27.50;;;15.07;;
28266;SDS011;15525;45.568;5.448;2023-11-18T05:15:42;23.08;;;13.38;;
28266;SDS011;15525;45.568;5.448;2023-11-18T05:18:14;24.13;;;14.18;;
28266;SDS011;15525;45.568;5.448;2023-11-18T05:20:40;26.17;;;15.70;;
28266;SDS011;15525;45.568;5.448;2023-11-18T05:23:06;27.45;;;15.43;;
28266;SDS011;15525;45.568;5.448;2023-11-18T05:25:35;27.55;;;15.82;;
28266;SDS011;15525;45.568;5.448;2023-11-18T05:28:08;27.98;;;16.15;;
28266;SDS011;15525;45.568;5.448;2023-11-18T05:30:34;25.25;;;14.25;;
28266;SDS011;15525;45.568;5.448;2023-11-18T05:33:01;27.60;;;15.48;;
28266;SDS011;15525;45.568;5.448;2023-11-18T05:35:29;26.10;;;14.13;;
28266;SDS011;15525;45.568;5.448;2023-11-18T05:37:55;24.83;;;13.90;;
28266;SDS011;15525;45.568;5.448;2023-11-18T05:40:20;30.60;;;15.68;;
28266;SDS011;15525;45.568;5.448;2023-11-18T05:42:46;22.10;;;13.60;;
28266;SDS011;15525;45.568;5.448;2023-11-18T05:45:13;29.33;;;15.38;;
28266;SDS011;15525;45.568;5.448;2023-11-18T05:47:52;30.42;;;13.80;;
28266;SDS011;15525;45.568;5.448;2023-11-18T05:50:25;21.98;;;13.30;;
28266;SDS011;15525;45.568;5.448;2023-11-18T05:52:58;23.27;;;13.95;;
28266;SDS011;15525;45.568;5.448;2023-11-18T05:55:24;23.13;;;13.70;;
28266;SDS011;15525;45.568;5.448;2023-11-18T05:57:50;23.27;;;13.55;;
28266;SDS011;15525;45.568;5.448;2023-11-18T06:00:15;24.83;;;13.32;;
28266;SDS011;15525;45.568;5.448;2023-11-18T06:02:44;22.52;;;13.50;;
28266;SDS011;15525;45.568;5.448;2023-11-18T06:05:10;27.05;;;14.55;;
28266;SDS011;15525;45.568;5.448;2023-11-18T06:07:37;25.13;;;13.90;;
28266;SDS011;15525;45.568;5.448;2023-11-18T06:10:05;25.85;;;13.88;;
28266;SDS011;15525;45.568;5.448;2023-11-18T06:12:31;24.15;;;14.30;;
28266;SDS011;15525;45.568;5.448;2023-11-18T06:14:58;25.95;;;14.48;;
28266;SDS011;15525;45.568;5.448;2023-11-18T06:17:23;24.10;;;13.98;;
28266;SDS011;15525;45.568;5.448;2023-11-18T06:19:49;24.70;;;14.13;;
28266;SDS011;15525;45.568;5.448;2023-11-18T06:22:14;24.55;;;13.90;;
28266;SDS011;15525;45.568;5.448;2023-11-18T06:24:40;21.50;;;13.00;;
28266;SDS011;15525;45.568;5.448;2023-11-18T06:27:06;25.75;;;14.95;;
28266;SDS011;15525;45.568;5.448;2023-11-18T06:29:33;24.38;;;13.73;;
28266;SDS011;15525;45.568;5.448;2023-11-18T06:31:59;29.80;;;16.77;;
28266;SDS011;15525;45.568;5.448;2023-11-18T06:34:25;36.42;;;17.95;;
28266;SDS011;15525;45.568;5.448;2023-11-18T06:36:52;26.05;;;13.77;;
28266;SDS011;15525;45.568;5.448;2023-11-18T06:39:17;21.00;;;13.18;;
28266;SDS011;15525;45.568;5.448;2023-11-18T06:41:44;23.80;;;13.40;;
28266;SDS011;15525;45.568;5.448;2023-11-18T06:44:14;24.00;;;13.07;;
28266;SDS011;15525;45.568;5.448;2023-11-18T06:46:43;24.70;;;14.45;;
28266;SDS011;15525;45.568;5.448;2023-11-18T06:49:09;22.25;;;13.23;;
28266;SDS011;15525;45.568;5.448;2023-11-18T06:51:40;23.85;;;13.50;;
28266;SDS011;15525;45.568;5.448;2023-11-18T06:54:06;26.38;;;14.95;;
28266;SDS011;15525;45.568;5.448;2023-11-18T06:56:39;24.30;;;13.80;;
28266;SDS011;15525;45.568;5.448;2023-11-18T06:59:09;24.08;;;13.95;;
28266;SDS011;15525;45.568;5.448;2023-11-18T07:01:38;25.23;;;12.65;;
28266;SDS011;15525;45.568;5.448;2023-11-18T07:04:05;22.38;;;13.27;;
28266;SDS011;15525;45.568;5.448;2023-11-18T07:06:33;23.92;;;13.15;;
28266;SDS011;15525;45.568;5.448;2023-11-18T07:09:03;23.35;;;13.68;;
28266;SDS011;15525;45.568;5.448;2023-11-18T07:14:02;26.05;;;14.70;;
28266;SDS011;15525;45.568;5.448;2023-11-18T07:16:28;22.85;;;13.93;;
28266;SDS011;15525;45.568;5.448;2023-11-18T07:18:53;21.25;;;12.55;;
28266;SDS011;15525;45.568;5.448;2023-11-18T07:21:19;22.95;;;13.23;;
28266;SDS011;15525;45.568;5.448;2023-11-18T07:23:44;23.88;;;13.43;;
28266;SDS011;15525;45.568;5.448;2023-11-18T07:26:10;23.95;;;12.55;;
28266;SDS011;15525;45.568;5.448;2023-11-18T07:28:35;23.98;;;12.30;;
28266;SDS011;15525;45.568;5.448;2023-11-18T07:31:01;25.05;;;13.20;;
28266;SDS011;15525;45.568;5.448;2023-11-18T07:33:29;24.70;;;13.00;;
28266;SDS011;15525;45.568;5.448;2023-11-18T07:35:57;21.73;;;12.82;;
28266;SDS011;15525;45.568;5.448;2023-11-18T07:38:23;20.50;;;12.57;;
28266;SDS011;15525;45.568;5.448;2023-11-18T07:40:48;23.85;;;12.73;;
28266;SDS011;15525;45.568;5.448;2023-11-18T07:43:17;26.05;;;14.75;;
28266;SDS011;15525;45.568;5.448;2023-11-18T07:45:42;30.38;;;13.95;;
28266;SDS011;15525;45.568;5.448;2023-11-18T07:48:09;23.42;;;12.75;;
28266;SDS011;15525;45.568;5.448;2023-11-18T07:50:37;23.65;;;13.30;;
28266;SDS011;15525;45.568;5.448;2023-11-18T07:53:03;29.48;;;14.77;;
28266;SDS011;15525;45.568;5.448;2023-11-18T07:55:31;28.27;;;13.70;;
28266;SDS011;15525;45.568;5.448;2023-11-18T07:58:02;24.30;;;13.32;;
28266;SDS011;15525;45.568;5.448;2023-11-18T08:00:28;23.20;;;13.45;;
28266;SDS011;15525;45.568;5.448;2023-11-18T08:02:56;23.95;;;14.32;;
28266;SDS011;15525;45.568;5.448;2023-11-18T08:05:22;26.17;;;13.25;;
28266;SDS011;15525;45.568;5.448;2023-11-18T08:07:48;23.83;;;13.93;;
28266;SDS011;15525;45.568;5.448;2023-11-18T08:10:14;22.50;;;14.30;;
28266;SDS011;15525;45.568;5.448;2023-11-18T08:12:45;24.00;;;14.15;;
28266;SDS011;15525;45.568;5.448;2023-11-18T08:15:10;30.38;;;16.40;;
28266;SDS011;15525;45.568;5.448;2023-11-18T08:17:36;29.38;;;14.93;;
28266;SDS011;15525;45.568;5.448;2023-11-18T08:20:01;29.42;;;13.52;;
28266;SDS011;15525;45.568;5.448;2023-11-18T08:22:38;27.27;;;14.93;;
28266;SDS011;15525;45.568;5.448;2023-11-18T08:25:09;27.17;;;15.68;;
28266;SDS011;15525;45.568;5.448;2023-11-18T08:27:35;24.45;;;14.18;;
28266;SDS011;15525;45.568;5.448;2023-11-18T08:30:01;27.20;;;13.18;;
28266;SDS011;15525;45.568;5.448;2023-11-18T08:32:31;23.00;;;12.90;;
28266;SDS011;15525;45.568;5.448;2023-11-18T08:34:56;23.80;;;12.57;;
28266;SDS011;15525;45.568;5.448;2023-11-18T08:37:22;19.02;;;12.02;;
28266;SDS011;15525;45.568;5.448;2023-11-18T08:39:47;21.95;;;12.13;;
28266;SDS011;15525;45.568;5.448;2023-11-18T08:42:12;19.77;;;10.85;;
28266;SDS011;15525;45.568;5.448;2023-11-18T08:44:39;21.85;;;11.85;;
28266;SDS011;15525;45.568;5.448;2023-11-18T08:47:05;18.95;;;10.45;;
28266;SDS011;15525;45.568;5.448;2023-11-18T08:49:33;18.85;;;10.90;;
28266;SDS011;15525;45.568;5.448;2023-11-18T08:51:59;15.55;;;10.13;;
28266;SDS011;15525;45.568;5.448;2023-11-18T08:54:24;16.27;;;9.80;;
28266;SDS011;15525;45.568;5.448;2023-11-18T08:57:04;16.27;;;9.48;;
28266;SDS011;15525;45.568;5.448;2023-11-18T08:59:48;15.82;;;9.73;;
28266;SDS011;15525;45.568;5.448;2023-11-18T09:02:14;17.55;;;8.98;;
28266;SDS011;15525;45.568;5.448;2023-11-18T09:04:42;13.77;;;8.48;;
28266;SDS011;15525;45.568;5.448;2023-11-18T09:07:09;15.45;;;8.13;;
28266;SDS011;15525;45.568;5.448;2023-11-18T09:09:35;14.10;;;8.23;;
28266;SDS011;15525;45.568;5.448;2023-11-18T09:12:01;16.27;;;8.50;;
28266;SDS011;15525;45.568;5.448;2023-11-18T09:14:28;13.70;;;7.95;;
28266;SDS011;15525;45.568;5.448;2023-11-18T09:16:53;14.90;;;8.18;;
28266;SDS011;15525;45.568;5.448;2023-11-18T09:19:24;13.68;;;7.57;;
28266;SDS011;15525;45.568;5.448;2023-11-18T09:21:50;13.23;;;7.72;;
28266;SDS011;15525;45.568;5.448;2023-11-18T09:24:16;11.73;;;7.60;;
28266;SDS011;15525;45.568;5.448;2023-11-18T09:26:45;11.88;;;7.47;;
28266;SDS011;15525;45.568;5.448;2023-11-18T09:29:13;11.20;;;6.78;;
28266;SDS011;15525;45.568;5.448;2023-11-18T09:31:42;10.40;;;6.60;;
28266;SDS011;15525;45.568;5.448;2023-11-18T09:34:17;14.27;;;7.57;;
28266;SDS011;15525;45.568;5.448;2023-11-18T09:36:43;14.30;;;8.40;;
28266;SDS011;15525;45.568;5.448;2023-11-18T09:39:09;14.88;;;8.57;;
28266;SDS011;15525;45.568;5.448;2023-11-18T09:41:54;14.80;;;8.07;;
28266;SDS011;15525;45.568;5.448;2023-11-18T09:44:23;14.35;;;8.38;;
28266;SDS011;15525;45.568;5.448;2023-11-18T09:46:56;13.68;;;8.13;;
28266;SDS011;15525;45.568;5.448;2023-11-18T09:49:37;14.30;;;8.02;;
28266;SDS011;15525;45.568;5.448;2023-11-18T09:52:09;17.08;;;8.75;;
28266;SDS011;15525;45.568;5.448;2023-11-18T09:54:45;13.80;;;8.20;;
28266;SDS011;15525;45.568;5.448;2023-11-18T09:57:32;14.45;;;8.43;;
28266;SDS011;15525;45.568;5.448;2023-11-18T10:00:05;9.82;;;6.60;;
28266;SDS011;15525;45.568;5.448;2023-11-18T10:02:50;10.30;;;6.07;;
28266;SDS011;15525;45.568;5.448;2023-11-18T10:05:16;9.05;;;5.93;;
28266;SDS011;15525;45.568;5.448;2023-11-18T10:07:46;8.27;;;5.72;;
28266;SDS011;15525;45.568;5.448;2023-11-18T10:10:12;12.55;;;6.63;;
28266;SDS011;15525;45.568;5.448;2023-11-18T10:12:44;10.30;;;7.28;;
28266;SDS011;15525;45.568;5.448;2023-11-18T10:15:14;10.52;;;6.32;;
28266;SDS011;15525;45.568;5.448;2023-11-18T10:17:42;8.98;;;5.90;;
28266;SDS011;15525;45.568;5.448;2023-11-18T10:23:06;11.93;;;5.50;;
28266;SDS011;15525;45.568;5.448;2023-11-18T10:25:35;8.10;;;5.53;;
28266;SDS011;15525;45.568;5.448;2023-11-18T10:28:05;10.32;;;5.50;;
28266;SDS011;15525;45.568;5.448;2023-11-18T10:30:31;7.63;;;5.18;;
28266;SDS011;15525;45.568;5.448;2023-11-18T10:32:58;10.30;;;5.90;;
28266;SDS011;15525;45.568;5.448;2023-11-18T10:35:34;10.43;;;5.63;;
28266;SDS011;15525;45.568;5.448;2023-11-18T10:38:02;9.43;;;5.22;;
28266;SDS011;15525;45.568;5.448;2023-11-18T10:40:31;8.02;;;4.70;;
28266;SDS011;15525;45.568;5.448;2023-11-18T10:43:02;8.95;;;5.15;;
28266;SDS011;15525;45.568;5.448;2023-11-18T10:45:30;8.70;;;5.70;;
28266;SDS011;15525;45.568;5.448;2023-11-18T10:47:57;6.05;;;4.60;;
28266;SDS011;15525;45.568;5.448;2023-11-18T10:50:23;9.27;;;5.80;;
28266;SDS011;15525;45.568;5.448;2023-11-18T10:52:48;7.57;;;4.18;;
28266;SDS011;15525;45.568;5.448;2023-11-18T10:55:14;6.97;;;4.32;;
28266;SDS011;15525;45.568;5.448;2023-11-18T10:57:44;6.07;;;4.18;;
28266;SDS011;15525;45.568;5.448;2023-11-18T11:00:10;6.72;;;3.90;;
28266;SDS011;15525;45.568;5.448;2023-11-18T11:02:40;9.30;;;4.28;;
28266;SDS011;15525;45.568;5.448;2023-11-18T11:05:10;5.00;;;3.83;;
28266;SDS011;15525;45.568;5.448;2023-11-18T11:07:41;7.22;;;4.05;;
28266;SDS011;15525;45.568;5.448;2023-11-18T11:10:07;6.97;;;4.47;;
28266;SDS011;15525;45.568;5.448;2023-11-18T11:12:35;6.85;;;3.70;;
28266;SDS011;15525;45.568;5.448;2023-11-18T11:15:17;6.50;;;4.15;;
28266;SDS011;15525;45.568;5.448;2023-11-18T11:17:48;6.43;;;4.05;;
28266;SDS011;15525;45.568;5.448;2023-11-18T11:20:21;7.22;;;4.50;;
28266;SDS011;15525;45.568;5.448;2023-11-18T11:25:49;8.27;;;5.13;;
28266;SDS011;15525;45.568;5.448;2023-11-18T11:28:24;7.43;;;4.95;;
28266;SDS011;15525;45.568;5.448;2023-11-18T11:31:01;7.97;;;4.90;;
28266;SDS011;15525;45.568;5.448;2023-11-18T11:36:23;10.48;;;5.35;;
28266;SDS011;15525;45.568;5.448;2023-11-18T11:38:56;11.95;;;6.82;;
28266;SDS011;15525;45.568;5.448;2023-11-18T11:41:23;12.80;;;7.38;;
28266;SDS011;15525;45.568;5.448;2023-11-18T11:43:52;18.45;;;7.40;;
28266;SDS011;15525;45.568;5.448;2023-11-18T11:46:22;10.23;;;5.90;;
28266;SDS011;15525;45.568;5.448;2023-11-18T11:48:52;8.57;;;5.68;;
28266;SDS011;15525;45.568;5.448;2023-11-18T11:51:22;33.20;;;13.70;;
28266;SDS011;15525;45.568;5.448;2023-11-18T11:56:42;17.88;;;9.48;;
28266;SDS011;15525;45.568;5.448;2023-11-18T11:59:08;10.88;;;6.88;;
28266;SDS011;15525;45.568;5.448;2023-11-18T12:01:42;9.70;;;6.40;;
28266;SDS011;15525;45.568;5.448;2023-11-18T12:04:12;10.68;;;6.47;;
28266;SDS011;15525;45.568;5.448;2023-11-18T12:06:46;8.63;;;5.88;;
28266;SDS011;15525;45.568;5.448;2023-11-18T12:09:16;8.98;;;5.80;;
28266;SDS011;15525;45.568;5.448;2023-11-18T12:11:47;7.60;;;4.93;;
28266;SDS011;15525;45.568;5.448;2023-11-18T12:14:16;9.25;;;5.40;;
28266;SDS011;15525;45.568;5.448;2023-11-18T12:19:29;9.73;;;6.10;;
28266;SDS011;15525;45.568;5.448;2023-11-18T12:22:02;8.85;;;5.65;;
28266;SDS011;15525;45.568;5.448;2023-11-18T12:24:37;9.15;;;5.47;;
28266;SDS011;15525;45.568;5.448;2023-11-18T12:27:04;8.70;;;5.85;;
28266;SDS011;15525;45.568;5.448;2023-11-18T12:29:40;8.05;;;6.03;;
28266;SDS011;15525;45.568;5.448;2023-11-18T12:32:08;11.32;;;6.00;;
28266;SDS011;15525;45.568;5.448;2023-11-18T12:34:52;9.70;;;5.85;;
28266;SDS011;15525;45.568;5.448;2023-11-18T12:45:42;17.77;;;9.35;;
28266;SDS011;15525;45.568;5.448;2023-11-18T12:48:15;14.98;;;8.38;;
28266;SDS011;15525;45.568;5.448;2023-11-18T12:50:49;11.65;;;6.60;;
28266;SDS011;15525;45.568;5.448;2023-11-18T12:53:16;10.73;;;6.18;;
28266;SDS011;15525;45.568;5.448;2023-11-18T12:55:43;10.73;;;5.90;;
28266;SDS011;15525;45.568;5.448;2023-11-18T12:58:09;14.25;;;8.63;;
28266;SDS011;15525;45.568;5.448;2023-11-18T13:00:36;12.57;;;9.00;;
28266;SDS011;15525;45.568;5.448;2023-11-18T13:03:04;12.50;;;8.70;;
28266;SDS011;15525;45.568;5.448;2023-11-18T13:05:29;8.65;;;6.05;;
28266;SDS011;15525;45.568;5.448;2023-11-18T13:07:58;8.80;;;5.80;;
28266;SDS011;15525;45.568;5.448;2023-11-18T13:10:26;9.48;;;5.90;;
28266;SDS011;15525;45.568;5.448;2023-11-18T13:12:52;8.88;;;5.65;;
28266;SDS011;15525;45.568;5.448;2023-11-18T13:15:19;8.02;;;5.65;;
28266;SDS011;15525;45.568;5.448;2023-11-18T13:17:58;10.60;;;6.20;;
28266;SDS011;15525;45.568;5.448;2023-11-18T13:20:34;9.60;;;7.05;;
28266;SDS011;15525;45.568;5.448;2023-11-18T13:23:02;9.68;;;6.20;;
28266;SDS011;15525;45.568;5.448;2023-11-18T13:25:36;8.80;;;5.63;;
28266;SDS011;15525;45.568;5.448;2023-11-18T13:28:09;8.35;;;5.97;;
28266;SDS011;15525;45.568;5.448;2023-11-18T13:30:35;10.70;;;6.18;;
28266;SDS011;15525;45.568;5.448;2023-11-18T13:33:01;7.65;;;5.57;;
28266;SDS011;15525;45.568;5.448;2023-11-18T13:35:27;8.80;;;5.97;;
28266;SDS011;15525;45.568;5.448;2023-11-18T13:37:53;7.95;;;5.53;;
28266;SDS011;15525;45.568;5.448;2023-11-18T13:40:19;8.68;;;5.65;;
28266;SDS011;15525;45.568;5.448;2023-11-18T13:42:44;9.02;;;5.70;;
28266;SDS011;15525;45.568;5.448;2023-11-18T13:45:11;11.73;;;7.70;;
28266;SDS011;15525;45.568;5.448;2023-11-18T13:47:48;10.70;;;6.95;;
28266;SDS011;15525;45.568;5.448;2023-11-18T13:50:20;12.05;;;6.82;;
28266;SDS011;15525;45.568;5.448;2023-11-18T13:52:46;10.77;;;6.65;;
28266;SDS011;15525;45.568;5.448;2023-11-18T13:55:14;9.35;;;6.28;;
28266;SDS011;15525;45.568;5.448;2023-11-18T13:57:52;10.55;;;6.40;;
28266;SDS011;15525;45.568;5.448;2023-11-18T14:00:22;10.07;;;5.97;;
28266;SDS011;15525;45.568;5.448;2023-11-18T14:02:52;12.18;;;6.28;;
28266;SDS011;15525;45.568;5.448;2023-11-18T14:05:21;12.65;;;6.50;;
28266;SDS011;15525;45.568;5.448;2023-11-18T14:07:49;9.90;;;6.22;;
28266;SDS011;15525;45.568;5.448;2023-11-18T14:10:17;9.38;;;6.13;;
28266;SDS011;15525;45.568;5.448;2023-11-18T14:13:03;14.30;;;7.38;;
28266;SDS011;15525;45.568;5.448;2023-11-18T14:15:37;19.35;;;11.70;;
28266;SDS011;15525;45.568;5.448;2023-11-18T14:18:05;32.17;;;19.17;;
28266;SDS011;15525;45.568;5.448;2023-11-18T14:20:33;13.00;;;8.38;;
28266;SDS011;15525;45.568;5.448;2023-11-18T14:23:00;9.80;;;7.03;;
28266;SDS011;15525;45.568;5.448;2023-11-18T14:25:26;9.43;;;6.10;;
28266;SDS011;15525;45.568;5.448;2023-11-18T14:27:52;9.57;;;5.30;;
28266;SDS011;15525;45.568;5.448;2023-11-18T14:30:19;8.00;;;5.03;;
28266;SDS011;15525;45.568;5.448;2023-11-18T14:32:45;9.70;;;5.50;;
28266;SDS011;15525;45.568;5.448;2023-11-18T14:35:11;9.15;;;5.20;;
28266;SDS011;15525;45.568;5.448;2023-11-18T14:37:42;7.22;;;5.13;;
28266;SDS011;15525;45.568;5.448;2023-11-18T14:40:13;11.23;;;6.00;;
28266;SDS011;15525;45.568;5.448;2023-11-18T14:42:43;10.43;;;6.32;;
28266;SDS011;15525;45.568;5.448;2023-11-18T14:45:10;9.48;;;6.05;;
28266;SDS011;15525;45.568;5.448;2023-11-18T14:47:37;7.95;;;5.53;;
28266;SDS011;15525;45.568;5.448;2023-11-18T14:50:03;8.38;;;5.60;;
28266;SDS011;15525;45.568;5.448;2023-11-18T14:52:30;7.65;;;5.53;;
28266;SDS011;15525;45.568;5.448;2023-11-18T14:54:56;8.80;;;5.85;;
28266;SDS011;15525;45.568;5.448;2023-11-18T14:57:21;10.93;;;5.80;;
28266;SDS011;15525;45.568;5.448;2023-11-18T14:59:47;8.77;;;5.57;;
28266;SDS011;15525;45.568;5.448;2023-11-18T15:02:13;10.68;;;6.15;;